sensor_id;sensor_type;location;lat;lon;timestamp;P1;durP1;ratioP1;P2;durP2;ratioP2
49942;SDS011;36011;53.362;58.948;2023-06-14T00:02:53;8.32;;;2.78;;
49942;SDS011;36011;53.362;58.948;2023-06-14T00:05:56;9.10;;;3.17;;
49942;SDS011;36011;53.362;58.948;2023-06-14T00:09:06;5.97;;;3.33;;
49942;SDS011;36011;53.362;58.948;2023-06-14T00:12:15;5.00;;;3.28;;
49942;SDS011;36011;53.362;58.948;2023-06-14T00:15:19;9.82;;;3.50;;
49942;SDS011;36011;53.362;58.948;2023-06-14T00:18:23;7.70;;;3.05;;
49942;SDS011;36011;53.362;58.948;2023-06-14T00:21:35;8.75;;;3.53;;
49942;SDS011;36011;53.362;58.948;2023-06-14T00:24:39;10.43;;;3.33;;
49942;SDS011;36011;53.362;58.948;2023-06-14T00:27:46;9.68;;;3.80;;
49942;SDS011;36011;53.362;58.948;2023-06-14T00:30:52;22.20;;;11.35;;
49942;SDS011;36011;53.362;58.948;2023-06-14T00:33:58;22.10;;;11.07;;
49942;SDS011;36011;53.362;58.948;2023-06-14T00:37:07;33.80;;;18.52;;
49942;SDS011;36011;53.362;58.948;2023-06-14T00:40:11;21.08;;;11.95;;
49942;SDS011;36011;53.362;58.948;2023-06-14T00:43:20;16.70;;;7.75;;
49942;SDS011;36011;53.362;58.948;2023-06-14T00:46:24;15.98;;;8.45;;
49942;SDS011;36011;53.362;58.948;2023-06-14T00:49:31;17.00;;;8.02;;
49942;SDS011;36011;53.362;58.948;2023-06-14T00:52:37;8.25;;;4.90;;
49942;SDS011;36011;53.362;58.948;2023-06-14T00:55:41;9.10;;;3.53;;
49942;SDS011;36011;53.362;58.948;2023-06-14T00:58:42;7.35;;;3.33;;
49942;SDS011;36011;53.362;58.948;2023-06-14T01:01:46;12.35;;;3.20;;
49942;SDS011;36011;53.362;58.948;2023-06-14T01:04:53;9.65;;;3.25;;
49942;SDS011;36011;53.362;58.948;2023-06-14T01:08:44;6.78;;;3.10;;
49942;SDS011;36011;53.362;58.948;2023-06-14T01:11:45;5.70;;;2.97;;
49942;SDS011;36011;53.362;58.948;2023-06-14T01:14:55;5.22;;;2.67;;
49942;SDS011;36011;53.362;58.948;2023-06-14T01:18:03;5.25;;;2.65;;
49942;SDS011;36011;53.362;58.948;2023-06-14T01:21:19;9.02;;;3.40;;
49942;SDS011;36011;53.362;58.948;2023-06-14T01:24:25;7.97;;;3.25;;
49942;SDS011;36011;53.362;58.948;2023-06-14T01:27:35;7.65;;;3.15;;
49942;SDS011;36011;53.362;58.948;2023-06-14T01:30:45;5.25;;;3.10;;
49942;SDS011;36011;53.362;58.948;2023-06-14T01:33:52;9.82;;;3.40;;
49942;SDS011;36011;53.362;58.948;2023-06-14T01:36:56;10.32;;;3.85;;
49942;SDS011;36011;53.362;58.948;2023-06-14T01:40:03;10.10;;;3.72;;
49942;SDS011;36011;53.362;58.948;2023-06-14T01:43:07;11.23;;;3.30;;
49942;SDS011;36011;53.362;58.948;2023-06-14T01:46:11;11.82;;;4.05;;
49942;SDS011;36011;53.362;58.948;2023-06-14T01:49:20;11.63;;;4.20;;
49942;SDS011;36011;53.362;58.948;2023-06-14T01:52:27;10.93;;;3.78;;
49942;SDS011;36011;53.362;58.948;2023-06-14T01:55:34;13.40;;;4.75;;
49942;SDS011;36011;53.362;58.948;2023-06-14T01:58:40;16.75;;;4.93;;
49942;SDS011;36011;53.362;58.948;2023-06-14T02:01:44;16.30;;;5.25;;
49942;SDS011;36011;53.362;58.948;2023-06-14T02:04:49;13.27;;;5.20;;
49942;SDS011;36011;53.362;58.948;2023-06-14T02:07:56;19.20;;;5.68;;
49942;SDS011;36011;53.362;58.948;2023-06-14T02:10:58;13.82;;;5.53;;
49942;SDS011;36011;53.362;58.948;2023-06-14T02:14:02;20.92;;;5.97;;
49942;SDS011;36011;53.362;58.948;2023-06-14T02:17:06;14.18;;;5.28;;
49942;SDS011;36011;53.362;58.948;2023-06-14T02:20:08;16.90;;;5.97;;
49942;SDS011;36011;53.362;58.948;2023-06-14T02:23:12;23.73;;;7.00;;
49942;SDS011;36011;53.362;58.948;2023-06-14T02:26:14;23.33;;;6.45;;
49942;SDS011;36011;53.362;58.948;2023-06-14T02:29:15;15.80;;;6.50;;
49942;SDS011;36011;53.362;58.948;2023-06-14T02:32:24;18.67;;;5.88;;
49942;SDS011;36011;53.362;58.948;2023-06-14T02:35:33;17.48;;;6.80;;
49942;SDS011;36011;53.362;58.948;2023-06-14T02:38:35;15.60;;;5.57;;
49942;SDS011;36011;53.362;58.948;2023-06-14T02:41:41;16.95;;;5.50;;
49942;SDS011;36011;53.362;58.948;2023-06-14T02:44:50;17.05;;;5.63;;
49942;SDS011;36011;53.362;58.948;2023-06-14T02:47:55;18.35;;;5.97;;
49942;SDS011;36011;53.362;58.948;2023-06-14T02:50:59;26.25;;;6.68;;
49942;SDS011;36011;53.362;58.948;2023-06-14T02:54:00;14.93;;;6.00;;
49942;SDS011;36011;53.362;58.948;2023-06-14T02:57:05;16.98;;;6.20;;
49942;SDS011;36011;53.362;58.948;2023-06-14T03:00:07;10.93;;;6.25;;
49942;SDS011;36011;53.362;58.948;2023-06-14T03:03:11;15.05;;;6.35;;
49942;SDS011;36011;53.362;58.948;2023-06-14T03:06:19;13.80;;;6.32;;
49942;SDS011;36011;53.362;58.948;2023-06-14T03:09:24;15.70;;;5.57;;
49942;SDS011;36011;53.362;58.948;2023-06-14T03:12:28;13.77;;;5.00;;
49942;SDS011;36011;53.362;58.948;2023-06-14T03:15:31;13.15;;;5.68;;
49942;SDS011;36011;53.362;58.948;2023-06-14T03:18:34;11.63;;;5.50;;
49942;SDS011;36011;53.362;58.948;2023-06-14T03:21:41;16.05;;;6.40;;
49942;SDS011;36011;53.362;58.948;2023-06-14T03:24:49;14.50;;;6.18;;
49942;SDS011;36011;53.362;58.948;2023-06-14T03:27:54;18.70;;;7.15;;
49942;SDS011;36011;53.362;58.948;2023-06-14T03:31:00;16.85;;;6.65;;
49942;SDS011;36011;53.362;58.948;2023-06-14T03:34:11;15.18;;;6.57;;
49942;SDS011;36011;53.362;58.948;2023-06-14T03:37:18;14.32;;;6.72;;
49942;SDS011;36011;53.362;58.948;2023-06-14T03:40:28;15.82;;;6.63;;
49942;SDS011;36011;53.362;58.948;2023-06-14T03:43:32;12.23;;;5.60;;
49942;SDS011;36011;53.362;58.948;2023-06-14T03:46:36;11.02;;;5.60;;
49942;SDS011;36011;53.362;58.948;2023-06-14T03:49:41;16.77;;;6.50;;
49942;SDS011;36011;53.362;58.948;2023-06-14T03:52:47;20.27;;;7.22;;
49942;SDS011;36011;53.362;58.948;2023-06-14T03:55:52;11.82;;;6.20;;
49942;SDS011;36011;53.362;58.948;2023-06-14T03:58:57;15.93;;;5.50;;
49942;SDS011;36011;53.362;58.948;2023-06-14T04:01:58;10.02;;;4.93;;
49942;SDS011;36011;53.362;58.948;2023-06-14T04:05:01;9.30;;;4.15;;
49942;SDS011;36011;53.362;58.948;2023-06-14T04:08:09;9.45;;;3.70;;
49942;SDS011;36011;53.362;58.948;2023-06-14T04:11:13;9.38;;;4.55;;
49942;SDS011;36011;53.362;58.948;2023-06-14T04:14:15;9.15;;;4.68;;
49942;SDS011;36011;53.362;58.948;2023-06-14T04:20:20;9.55;;;4.05;;
49942;SDS011;36011;53.362;58.948;2023-06-14T04:23:25;15.70;;;4.90;;
49942;SDS011;36011;53.362;58.948;2023-06-14T04:26:31;15.70;;;4.38;;
49942;SDS011;36011;53.362;58.948;2023-06-14T04:29:36;10.60;;;3.85;;
49942;SDS011;36011;53.362;58.948;2023-06-14T04:32:43;6.25;;;2.55;;
49942;SDS011;36011;53.362;58.948;2023-06-14T04:38:48;13.38;;;3.17;;
49942;SDS011;36011;53.362;58.948;2023-06-14T04:41:50;8.23;;;2.90;;
49942;SDS011;36011;53.362;58.948;2023-06-14T04:44:59;13.07;;;2.90;;
49942;SDS011;36011;53.362;58.948;2023-06-14T04:48:04;4.65;;;2.72;;
49942;SDS011;36011;53.362;58.948;2023-06-14T04:51:07;4.57;;;2.08;;
49942;SDS011;36011;53.362;58.948;2023-06-14T04:54:11;9.07;;;2.40;;
49942;SDS011;36011;53.362;58.948;2023-06-14T04:57:17;4.45;;;2.00;;
49942;SDS011;36011;53.362;58.948;2023-06-14T05:00:27;3.95;;;1.88;;
49942;SDS011;36011;53.362;58.948;2023-06-14T05:03:32;4.82;;;1.60;;
49942;SDS011;36011;53.362;58.948;2023-06-14T05:06:37;4.43;;;1.88;;
49942;SDS011;36011;53.362;58.948;2023-06-14T05:09:41;4.47;;;1.65;;
49942;SDS011;36011;53.362;58.948;2023-06-14T05:12:49;8.45;;;1.80;;
49942;SDS011;36011;53.362;58.948;2023-06-14T05:15:53;5.95;;;1.75;;
49942;SDS011;36011;53.362;58.948;2023-06-14T05:18:59;3.85;;;1.85;;
49942;SDS011;36011;53.362;58.948;2023-06-14T05:22:07;4.07;;;1.55;;
49942;SDS011;36011;53.362;58.948;2023-06-14T05:25:13;6.05;;;1.58;;
49942;SDS011;36011;53.362;58.948;2023-06-14T05:28:22;4.35;;;1.60;;
49942;SDS011;36011;53.362;58.948;2023-06-14T05:31:27;7.25;;;2.63;;
49942;SDS011;36011;53.362;58.948;2023-06-14T05:34:32;3.72;;;1.35;;
49942;SDS011;36011;53.362;58.948;2023-06-14T05:37:36;7.43;;;1.50;;
49942;SDS011;36011;53.362;58.948;2023-06-14T05:40:42;5.63;;;1.38;;
49942;SDS011;36011;53.362;58.948;2023-06-14T05:43:45;3.25;;;1.27;;
49942;SDS011;36011;53.362;58.948;2023-06-14T05:46:51;2.97;;;1.00;;
49942;SDS011;36011;53.362;58.948;2023-06-14T05:49:55;3.30;;;0.90;;
49942;SDS011;36011;53.362;58.948;2023-06-14T05:53:00;1.58;;;0.88;;
49942;SDS011;36011;53.362;58.948;2023-06-14T05:56:06;3.30;;;1.30;;
49942;SDS011;36011;53.362;58.948;2023-06-14T05:59:13;3.37;;;0.97;;
49942;SDS011;36011;53.362;58.948;2023-06-14T06:02:15;2.35;;;1.00;;
49942;SDS011;36011;53.362;58.948;2023-06-14T06:05:20;1.27;;;0.90;;
49942;SDS011;36011;53.362;58.948;2023-06-14T06:08:27;2.28;;;1.00;;
49942;SDS011;36011;53.362;58.948;2023-06-14T06:11:30;2.97;;;1.00;;
49942;SDS011;36011;53.362;58.948;2023-06-14T06:14:37;1.58;;;0.93;;
49942;SDS011;36011;53.362;58.948;2023-06-14T06:17:46;2.80;;;1.08;;
49942;SDS011;36011;53.362;58.948;2023-06-14T06:20:52;2.25;;;0.85;;
49942;SDS011;36011;53.362;58.948;2023-06-14T06:24:02;2.80;;;0.75;;
49942;SDS011;36011;53.362;58.948;2023-06-14T06:27:07;1.67;;;0.77;;
49942;SDS011;36011;53.362;58.948;2023-06-14T06:30:15;1.40;;;0.77;;
49942;SDS011;36011;53.362;58.948;2023-06-14T06:33:23;1.50;;;0.85;;
49942;SDS011;36011;53.362;58.948;2023-06-14T06:36:28;0.90;;;0.70;;
49942;SDS011;36011;53.362;58.948;2023-06-14T06:39:35;1.55;;;0.90;;
49942;SDS011;36011;53.362;58.948;2023-06-14T06:42:39;1.35;;;0.73;;
49942;SDS011;36011;53.362;58.948;2023-06-14T06:45:45;2.35;;;0.73;;
49942;SDS011;36011;53.362;58.948;2023-06-14T06:48:49;1.60;;;1.10;;
49942;SDS011;36011;53.362;58.948;2023-06-14T06:55:05;2.60;;;0.73;;
49942;SDS011;36011;53.362;58.948;2023-06-14T06:58:11;1.80;;;0.90;;
49942;SDS011;36011;53.362;58.948;2023-06-14T07:01:16;2.45;;;0.70;;
49942;SDS011;36011;53.362;58.948;2023-06-14T07:04:18;1.77;;;0.88;;
49942;SDS011;36011;53.362;58.948;2023-06-14T07:07:22;1.80;;;0.75;;
49942;SDS011;36011;53.362;58.948;2023-06-14T07:10:27;3.25;;;0.75;;
49942;SDS011;36011;53.362;58.948;2023-06-14T07:13:33;1.70;;;0.85;;
49942;SDS011;36011;53.362;58.948;2023-06-14T07:16:38;1.10;;;0.70;;
49942;SDS011;36011;53.362;58.948;2023-06-14T07:19:46;2.65;;;0.70;;
49942;SDS011;36011;53.362;58.948;2023-06-14T07:22:50;1.55;;;0.60;;
49942;SDS011;36011;53.362;58.948;2023-06-14T07:25:55;2.05;;;0.70;;
49942;SDS011;36011;53.362;58.948;2023-06-14T07:28:59;1.88;;;0.75;;
49942;SDS011;36011;53.362;58.948;2023-06-14T07:32:05;1.02;;;0.70;;
49942;SDS011;36011;53.362;58.948;2023-06-14T07:35:09;2.67;;;0.82;;
49942;SDS011;36011;53.362;58.948;2023-06-14T07:38:13;2.10;;;0.77;;
49942;SDS011;36011;53.362;58.948;2023-06-14T07:41:18;2.05;;;0.80;;
49942;SDS011;36011;53.362;58.948;2023-06-14T07:44:23;0.88;;;0.73;;
49942;SDS011;36011;53.362;58.948;2023-06-14T07:47:26;1.55;;;0.80;;
49942;SDS011;36011;53.362;58.948;2023-06-14T07:50:32;0.85;;;0.80;;
49942;SDS011;36011;53.362;58.948;2023-06-14T07:53:38;0.88;;;0.50;;
49942;SDS011;36011;53.362;58.948;2023-06-14T07:56:47;2.45;;;0.80;;
49942;SDS011;36011;53.362;58.948;2023-06-14T07:59:53;0.60;;;0.60;;
49942;SDS011;36011;53.362;58.948;2023-06-14T08:02:59;1.65;;;0.85;;
49942;SDS011;36011;53.362;58.948;2023-06-14T08:06:07;1.08;;;0.85;;
49942;SDS011;36011;53.362;58.948;2023-06-14T08:09:12;3.53;;;1.23;;
49942;SDS011;36011;53.362;58.948;2023-06-14T08:12:18;2.13;;;0.95;;
49942;SDS011;36011;53.362;58.948;2023-06-14T08:15:24;1.95;;;1.00;;
49942;SDS011;36011;53.362;58.948;2023-06-14T08:18:29;1.33;;;0.95;;
49942;SDS011;36011;53.362;58.948;2023-06-14T08:21:34;1.52;;;0.82;;
49942;SDS011;36011;53.362;58.948;2023-06-14T08:24:40;2.08;;;1.00;;
49942;SDS011;36011;53.362;58.948;2023-06-14T08:27:47;1.55;;;0.88;;
49942;SDS011;36011;53.362;58.948;2023-06-14T08:30:52;2.05;;;0.68;;
49942;SDS011;36011;53.362;58.948;2023-06-14T08:33:57;0.90;;;0.60;;
49942;SDS011;36011;53.362;58.948;2023-06-14T08:37:02;1.60;;;1.00;;
49942;SDS011;36011;53.362;58.948;2023-06-14T08:40:07;2.85;;;0.95;;
49942;SDS011;36011;53.362;58.948;2023-06-14T08:43:25;1.58;;;0.88;;
49942;SDS011;36011;53.362;58.948;2023-06-14T08:46:32;1.77;;;1.27;;
49942;SDS011;36011;53.362;58.948;2023-06-14T08:49:38;1.30;;;0.82;;
49942;SDS011;36011;53.362;58.948;2023-06-14T08:52:51;1.30;;;0.80;;
49942;SDS011;36011;53.362;58.948;2023-06-14T08:55:58;2.60;;;1.13;;
49942;SDS011;36011;53.362;58.948;2023-06-14T08:59:08;1.38;;;0.70;;
49942;SDS011;36011;53.362;58.948;2023-06-14T09:02:15;2.55;;;0.93;;
49942;SDS011;36011;53.362;58.948;2023-06-14T09:05:25;1.80;;;0.87;;
49942;SDS011;36011;53.362;58.948;2023-06-14T09:08:31;2.95;;;1.58;;
49942;SDS011;36011;53.362;58.948;2023-06-14T09:11:38;1.52;;;1.02;;
49942;SDS011;36011;53.362;58.948;2023-06-14T09:14:44;3.08;;;1.17;;
49942;SDS011;36011;53.362;58.948;2023-06-14T09:17:50;1.08;;;0.82;;
49942;SDS011;36011;53.362;58.948;2023-06-14T09:20:55;2.33;;;1.10;;
49942;SDS011;36011;53.362;58.948;2023-06-14T09:24:01;0.90;;;0.77;;
49942;SDS011;36011;53.362;58.948;2023-06-14T09:27:07;3.05;;;0.80;;
49942;SDS011;36011;53.362;58.948;2023-06-14T09:30:20;1.40;;;0.90;;
49942;SDS011;36011;53.362;58.948;2023-06-14T09:33:25;2.85;;;0.88;;
49942;SDS011;36011;53.362;58.948;2023-06-14T09:36:32;1.10;;;0.85;;
49942;SDS011;36011;53.362;58.948;2023-06-14T09:39:35;1.75;;;0.90;;
49942;SDS011;36011;53.362;58.948;2023-06-14T09:42:52;1.75;;;1.00;;
49942;SDS011;36011;53.362;58.948;2023-06-14T09:46:00;2.08;;;1.23;;
49942;SDS011;36011;53.362;58.948;2023-06-14T09:49:06;2.40;;;1.23;;
49942;SDS011;36011;53.362;58.948;2023-06-14T09:52:14;2.10;;;1.00;;
49942;SDS011;36011;53.362;58.948;2023-06-14T09:55:22;3.05;;;1.30;;
49942;SDS011;36011;53.362;58.948;2023-06-14T09:58:29;2.20;;;1.20;;
49942;SDS011;36011;53.362;58.948;2023-06-14T10:01:38;1.30;;;1.00;;
49942;SDS011;36011;53.362;58.948;2023-06-14T10:04:46;2.85;;;1.20;;
49942;SDS011;36011;53.362;58.948;2023-06-14T10:08:00;1.92;;;1.17;;
49942;SDS011;36011;53.362;58.948;2023-06-14T10:11:13;1.23;;;1.13;;
49942;SDS011;36011;53.362;58.948;2023-06-14T10:14:19;3.60;;;1.00;;
49942;SDS011;36011;53.362;58.948;2023-06-14T10:21:02;1.50;;;1.05;;
49942;SDS011;36011;53.362;58.948;2023-06-14T10:24:13;2.60;;;1.40;;
49942;SDS011;36011;53.362;58.948;2023-06-14T10:27:24;1.20;;;1.10;;
49942;SDS011;36011;53.362;58.948;2023-06-14T10:30:28;1.38;;;1.00;;
49942;SDS011;36011;53.362;58.948;2023-06-14T10:33:55;1.95;;;1.17;;
49942;SDS011;36011;53.362;58.948;2023-06-14T10:37:03;3.38;;;1.35;;
49942;SDS011;36011;53.362;58.948;2023-06-14T10:40:09;1.77;;;1.30;;
49942;SDS011;36011;53.362;58.948;2023-06-14T10:43:34;2.28;;;1.17;;
49942;SDS011;36011;53.362;58.948;2023-06-14T10:46:40;3.58;;;1.60;;
49942;SDS011;36011;53.362;58.948;2023-06-14T10:53:21;5.40;;;1.33;;
49942;SDS011;36011;53.362;58.948;2023-06-14T10:56:29;2.47;;;1.58;;
49942;SDS011;36011;53.362;58.948;2023-06-14T10:59:35;1.67;;;1.30;;
49942;SDS011;36011;53.362;58.948;2023-06-14T11:06:14;1.95;;;1.00;;
49942;SDS011;36011;53.362;58.948;2023-06-14T11:09:44;2.47;;;1.27;;
49942;SDS011;36011;53.362;58.948;2023-06-14T11:13:10;2.13;;;1.17;;
49942;SDS011;36011;53.362;58.948;2023-06-14T11:16:17;15.93;;;9.55;;
49942;SDS011;36011;53.362;58.948;2023-06-14T11:19:22;4.53;;;2.20;;
49942;SDS011;36011;53.362;58.948;2023-06-14T11:22:27;3.25;;;1.15;;
49942;SDS011;36011;53.362;58.948;2023-06-14T11:25:32;1.75;;;1.10;;
49942;SDS011;36011;53.362;58.948;2023-06-14T11:28:37;3.03;;;1.50;;
49942;SDS011;36011;53.362;58.948;2023-06-14T11:31:45;2.03;;;1.50;;
49942;SDS011;36011;53.362;58.948;2023-06-14T11:34:50;4.07;;;1.50;;
49942;SDS011;36011;53.362;58.948;2023-06-14T11:37:56;4.53;;;2.78;;
49942;SDS011;36011;53.362;58.948;2023-06-14T11:41:04;5.45;;;4.05;;
49942;SDS011;36011;53.362;58.948;2023-06-14T11:44:11;4.22;;;1.80;;
49942;SDS011;36011;53.362;58.948;2023-06-14T11:47:15;2.63;;;1.50;;
49942;SDS011;36011;53.362;58.948;2023-06-14T11:50:19;2.20;;;1.20;;
49942;SDS011;36011;53.362;58.948;2023-06-14T11:53:25;1.98;;;1.20;;
49942;SDS011;36011;53.362;58.948;2023-06-14T11:56:30;1.42;;;1.13;;
49942;SDS011;36011;53.362;58.948;2023-06-14T11:59:38;1.95;;;1.20;;
49942;SDS011;36011;53.362;58.948;2023-06-14T12:02:51;2.80;;;1.60;;
49942;SDS011;36011;53.362;58.948;2023-06-14T12:06:09;2.75;;;1.38;;
49942;SDS011;36011;53.362;58.948;2023-06-14T12:09:10;4.90;;;1.20;;
49942;SDS011;36011;53.362;58.948;2023-06-14T12:12:15;3.03;;;1.30;;
49942;SDS011;36011;53.362;58.948;2023-06-14T12:15:21;2.55;;;1.50;;
49942;SDS011;36011;53.362;58.948;2023-06-14T12:18:35;2.40;;;1.30;;
49942;SDS011;36011;53.362;58.948;2023-06-14T12:21:42;2.50;;;1.38;;
49942;SDS011;36011;53.362;58.948;2023-06-14T12:24:51;6.30;;;3.78;;
49942;SDS011;36011;53.362;58.948;2023-06-14T12:27:57;2.63;;;2.00;;
49942;SDS011;36011;53.362;58.948;2023-06-14T12:31:05;2.00;;;1.23;;
49942;SDS011;36011;53.362;58.948;2023-06-14T12:34:07;1.75;;;1.20;;
49942;SDS011;36011;53.362;58.948;2023-06-14T12:37:08;2.15;;;1.60;;
49942;SDS011;36011;53.362;58.948;2023-06-14T12:40:15;4.88;;;2.33;;
49942;SDS011;36011;53.362;58.948;2023-06-14T12:43:19;3.08;;;1.45;;
49942;SDS011;36011;53.362;58.948;2023-06-14T12:46:22;3.95;;;1.80;;
49942;SDS011;36011;53.362;58.948;2023-06-14T12:49:29;3.05;;;1.85;;
49942;SDS011;36011;53.362;58.948;2023-06-14T12:52:41;2.15;;;1.20;;
49942;SDS011;36011;53.362;58.948;2023-06-14T12:55:53;2.38;;;1.70;;
49942;SDS011;36011;53.362;58.948;2023-06-14T12:58:57;2.83;;;1.92;;
49942;SDS011;36011;53.362;58.948;2023-06-14T13:02:11;2.67;;;1.30;;
49942;SDS011;36011;53.362;58.948;2023-06-14T13:05:21;2.88;;;1.48;;
49942;SDS011;36011;53.362;58.948;2023-06-14T13:08:22;2.92;;;1.52;;
49942;SDS011;36011;53.362;58.948;2023-06-14T13:11:27;3.03;;;1.63;;
49942;SDS011;36011;53.362;58.948;2023-06-14T13:14:28;2.80;;;1.50;;
49942;SDS011;36011;53.362;58.948;2023-06-14T13:17:29;3.10;;;1.50;;
49942;SDS011;36011;53.362;58.948;2023-06-14T13:20:39;1.60;;;1.02;;
49942;SDS011;36011;53.362;58.948;2023-06-14T13:23:42;2.17;;;1.40;;
49942;SDS011;36011;53.362;58.948;2023-06-14T13:26:44;1.70;;;1.38;;
49942;SDS011;36011;53.362;58.948;2023-06-14T13:29:48;3.97;;;1.33;;
49942;SDS011;36011;53.362;58.948;2023-06-14T13:32:53;1.60;;;1.13;;
49942;SDS011;36011;53.362;58.948;2023-06-14T13:35:56;2.75;;;1.42;;
49942;SDS011;36011;53.362;58.948;2023-06-14T13:39:03;4.13;;;1.40;;
49942;SDS011;36011;53.362;58.948;2023-06-14T13:42:04;2.05;;;1.30;;
49942;SDS011;36011;53.362;58.948;2023-06-14T13:45:10;1.70;;;1.45;;
49942;SDS011;36011;53.362;58.948;2023-06-14T13:48:12;4.38;;;2.17;;
49942;SDS011;36011;53.362;58.948;2023-06-14T13:51:14;5.90;;;1.83;;
49942;SDS011;36011;53.362;58.948;2023-06-14T13:54:19;2.00;;;1.52;;
49942;SDS011;36011;53.362;58.948;2023-06-14T13:57:26;2.58;;;1.58;;
49942;SDS011;36011;53.362;58.948;2023-06-14T14:00:30;5.40;;;1.88;;
49942;SDS011;36011;53.362;58.948;2023-06-14T14:03:35;5.07;;;2.38;;
49942;SDS011;36011;53.362;58.948;2023-06-14T14:06:39;3.53;;;1.60;;
49942;SDS011;36011;53.362;58.948;2023-06-14T14:09:40;5.32;;;2.25;;
49942;SDS011;36011;53.362;58.948;2023-06-14T14:12:43;2.60;;;1.73;;
49942;SDS011;36011;53.362;58.948;2023-06-14T14:15:50;3.20;;;1.85;;
49942;SDS011;36011;53.362;58.948;2023-06-14T14:18:54;3.08;;;1.58;;
49942;SDS011;36011;53.362;58.948;2023-06-14T14:21:56;4.20;;;1.60;;
49942;SDS011;36011;53.362;58.948;2023-06-14T14:25:00;3.38;;;1.75;;
49942;SDS011;36011;53.362;58.948;2023-06-14T14:28:04;2.47;;;1.58;;
49942;SDS011;36011;53.362;58.948;2023-06-14T14:31:08;1.92;;;1.70;;
49942;SDS011;36011;53.362;58.948;2023-06-14T14:34:12;8.60;;;3.92;;
49942;SDS011;36011;53.362;58.948;2023-06-14T14:37:13;3.92;;;2.67;;
49942;SDS011;36011;53.362;58.948;2023-06-14T14:40:17;5.68;;;2.33;;
49942;SDS011;36011;53.362;58.948;2023-06-14T14:43:20;6.20;;;2.90;;
49942;SDS011;36011;53.362;58.948;2023-06-14T14:46:27;4.53;;;2.65;;
49942;SDS011;36011;53.362;58.948;2023-06-14T14:49:31;4.38;;;2.40;;
49942;SDS011;36011;53.362;58.948;2023-06-14T14:52:35;5.50;;;1.88;;
49942;SDS011;36011;53.362;58.948;2023-06-14T14:55:41;4.57;;;2.67;;
49942;SDS011;36011;53.362;58.948;2023-06-14T14:58:45;4.53;;;2.25;;
49942;SDS011;36011;53.362;58.948;2023-06-14T15:01:47;4.22;;;2.20;;
49942;SDS011;36011;53.362;58.948;2023-06-14T15:04:49;2.92;;;2.20;;
49942;SDS011;36011;53.362;58.948;2023-06-14T15:07:51;2.80;;;1.90;;
49942;SDS011;36011;53.362;58.948;2023-06-14T15:10:52;1.92;;;1.73;;
49942;SDS011;36011;53.362;58.948;2023-06-14T15:13:56;3.28;;;1.90;;
49942;SDS011;36011;53.362;58.948;2023-06-14T15:16:57;4.22;;;2.50;;
49942;SDS011;36011;53.362;58.948;2023-06-14T15:20:02;3.90;;;2.80;;
49942;SDS011;36011;53.362;58.948;2023-06-14T15:23:07;7.07;;;3.33;;
49942;SDS011;36011;53.362;58.948;2023-06-14T15:26:08;8.13;;;3.40;;
49942;SDS011;36011;53.362;58.948;2023-06-14T15:29:11;5.27;;;3.60;;
49942;SDS011;36011;53.362;58.948;2023-06-14T15:32:18;5.50;;;3.95;;
49942;SDS011;36011;53.362;58.948;2023-06-14T15:35:22;3.53;;;2.80;;
49942;SDS011;36011;53.362;58.948;2023-06-14T15:38:24;11.48;;;7.35;;
49942;SDS011;36011;53.362;58.948;2023-06-14T15:41:25;7.78;;;4.68;;
49942;SDS011;36011;53.362;58.948;2023-06-14T15:44:26;6.35;;;2.80;;
49942;SDS011;36011;53.362;58.948;2023-06-14T15:47:30;7.45;;;4.13;;
49942;SDS011;36011;53.362;58.948;2023-06-14T15:50:39;3.67;;;2.90;;
49942;SDS011;36011;53.362;58.948;2023-06-14T15:53:47;7.10;;;2.60;;
49942;SDS011;36011;53.362;58.948;2023-06-14T15:56:49;4.85;;;2.58;;
49942;SDS011;36011;53.362;58.948;2023-06-14T15:59:53;6.43;;;2.55;;
49942;SDS011;36011;53.362;58.948;2023-06-14T16:02:57;4.65;;;2.97;;
49942;SDS011;36011;53.362;58.948;2023-06-14T16:05:59;3.85;;;1.85;;
49942;SDS011;36011;53.362;58.948;2023-06-14T16:09:00;2.90;;;2.53;;
49942;SDS011;36011;53.362;58.948;2023-06-14T16:12:06;5.18;;;2.58;;
49942;SDS011;36011;53.362;58.948;2023-06-14T16:15:08;4.25;;;1.73;;
49942;SDS011;36011;53.362;58.948;2023-06-14T16:18:10;9.70;;;2.10;;
49942;SDS011;36011;53.362;58.948;2023-06-14T16:21:14;3.65;;;2.05;;
49942;SDS011;36011;53.362;58.948;2023-06-14T16:24:19;5.25;;;2.22;;
49942;SDS011;36011;53.362;58.948;2023-06-14T16:27:20;4.95;;;2.03;;
49942;SDS011;36011;53.362;58.948;2023-06-14T16:30:26;5.25;;;2.17;;
49942;SDS011;36011;53.362;58.948;2023-06-14T16:33:33;3.70;;;2.00;;
49942;SDS011;36011;53.362;58.948;2023-06-14T16:36:34;5.95;;;2.58;;
49942;SDS011;36011;53.362;58.948;2023-06-14T16:39:38;5.65;;;2.75;;
49942;SDS011;36011;53.362;58.948;2023-06-14T16:42:42;3.78;;;2.63;;
49942;SDS011;36011;53.362;58.948;2023-06-14T16:45:48;6.13;;;2.78;;
49942;SDS011;36011;53.362;58.948;2023-06-14T16:48:56;3.47;;;2.50;;
49942;SDS011;36011;53.362;58.948;2023-06-14T16:52:01;5.70;;;3.20;;
49942;SDS011;36011;53.362;58.948;2023-06-14T16:55:05;6.30;;;3.08;;
49942;SDS011;36011;53.362;58.948;2023-06-14T16:58:07;4.05;;;2.70;;
49942;SDS011;36011;53.362;58.948;2023-06-14T17:01:12;6.15;;;2.10;;
49942;SDS011;36011;53.362;58.948;2023-06-14T17:04:16;4.97;;;2.50;;
49942;SDS011;36011;53.362;58.948;2023-06-14T17:07:22;5.82;;;2.17;;
49942;SDS011;36011;53.362;58.948;2023-06-14T17:10:27;3.30;;;1.85;;
49942;SDS011;36011;53.362;58.948;2023-06-14T17:13:34;4.05;;;1.85;;
49942;SDS011;36011;53.362;58.948;2023-06-14T17:16:38;4.60;;;2.30;;
49942;SDS011;36011;53.362;58.948;2023-06-14T17:19:43;3.53;;;2.28;;
49942;SDS011;36011;53.362;58.948;2023-06-14T17:22:46;6.25;;;2.53;;
49942;SDS011;36011;53.362;58.948;2023-06-14T17:25:56;5.07;;;3.25;;
49942;SDS011;36011;53.362;58.948;2023-06-14T17:29:02;9.55;;;4.88;;
49942;SDS011;36011;53.362;58.948;2023-06-14T17:32:06;12.25;;;5.07;;
49942;SDS011;36011;53.362;58.948;2023-06-14T17:35:08;14.27;;;6.68;;
49942;SDS011;36011;53.362;58.948;2023-06-14T17:38:12;16.02;;;8.77;;
49942;SDS011;36011;53.362;58.948;2023-06-14T17:41:16;15.23;;;8.40;;
49942;SDS011;36011;53.362;58.948;2023-06-14T17:44:25;20.88;;;10.82;;
49942;SDS011;36011;53.362;58.948;2023-06-14T17:47:31;20.13;;;12.13;;
49942;SDS011;36011;53.362;58.948;2023-06-14T17:50:37;26.75;;;14.45;;
49942;SDS011;36011;53.362;58.948;2023-06-14T17:53:41;22.20;;;14.10;;
49942;SDS011;36011;53.362;58.948;2023-06-14T17:56:48;21.23;;;13.77;;
49942;SDS011;36011;53.362;58.948;2023-06-14T17:59:52;27.77;;;14.10;;
49942;SDS011;36011;53.362;58.948;2023-06-14T18:02:57;24.38;;;12.98;;
49942;SDS011;36011;53.362;58.948;2023-06-14T18:06:03;15.95;;;9.85;;
49942;SDS011;36011;53.362;58.948;2023-06-14T18:09:09;19.30;;;11.50;;
49942;SDS011;36011;53.362;58.948;2023-06-14T18:12:11;23.55;;;11.20;;
49942;SDS011;36011;53.362;58.948;2023-06-14T18:15:12;22.10;;;12.02;;
49942;SDS011;36011;53.362;58.948;2023-06-14T18:18:16;28.67;;;13.38;;
49942;SDS011;36011;53.362;58.948;2023-06-14T18:21:25;18.73;;;11.05;;
49942;SDS011;36011;53.362;58.948;2023-06-14T18:24:27;21.42;;;11.55;;
49942;SDS011;36011;53.362;58.948;2023-06-14T18:27:31;24.13;;;11.05;;
49942;SDS011;36011;53.362;58.948;2023-06-14T18:33:38;17.92;;;10.02;;
49942;SDS011;36011;53.362;58.948;2023-06-14T18:36:40;19.88;;;10.85;;
49942;SDS011;36011;53.362;58.948;2023-06-14T18:39:41;20.67;;;11.15;;
49942;SDS011;36011;53.362;58.948;2023-06-14T18:42:45;17.02;;;10.60;;